KLM107 LICC-LIRZ
Flight info
| Callsign | KLM107 |
|---|---|
| Flight time | 1h 21m |
| Altitude | 36000 |
| Route | BUDIN DCT DIRED DCT DELER DCT NEKPI DCT LAT DCT TIBER Y106 GITOD |
| Aircraft | B738/M-SDE2E3FGHIRWXY/L |
Departure
| Time | 2026-05-07 10:53 |
|---|---|
| Airport | Catania-Fontanarossa Airport (LICC) |
Arrival
| Time | 2026-05-07 12:15 |
|---|---|
| Airport | Perugia San Francesco d'Assisi – Umbria International Airport (LIRZ) |
| Time | Latitude | Longitude | Altitude | Speed | Heading |
|---|---|---|---|---|---|
| 2026-05-07 10:15 | 37.46920 | 15.06265 | 21 ft | 0 kts | 316° |
| 2026-05-07 10:43 | 37.46910 | 15.06277 | 23 ft | 2 kts | 316° |
| 2026-05-07 10:43 | 37.46898 | 15.06291 | 24 ft | 2 kts | 316° |
| 2026-05-07 10:44 | 37.46886 | 15.06305 | 21 ft | 2 kts | 317° |
| 2026-05-07 10:44 | 37.46874 | 15.06320 | 23 ft | 2 kts | 317° |
| 2026-05-07 10:44 | 37.46862 | 15.06334 | 23 ft | 2 kts | 317° |
| 2026-05-07 10:44 | 37.46850 | 15.06348 | 24 ft | 2 kts | 317° |
| 2026-05-07 10:45 | 37.46837 | 15.06362 | 21 ft | 2 kts | 317° |
| 2026-05-07 10:45 | 37.46826 | 15.06377 | 24 ft | 2 kts | 303° |
| 2026-05-07 10:45 | 37.46823 | 15.06383 | 25 ft | 0 kts | 263° |
| 2026-05-07 10:49 | 37.46822 | 15.06377 | 24 ft | 2 kts | 263° |
| 2026-05-07 10:49 | 37.46819 | 15.06343 | 21 ft | 6 kts | 263° |
| 2026-05-07 10:50 | 37.46813 | 15.06273 | 21 ft | 10 kts | 264° |
| 2026-05-07 10:50 | 37.46805 | 15.06171 | 21 ft | 13 kts | 265° |
| 2026-05-07 10:50 | 37.46793 | 15.06039 | 21 ft | 17 kts | 263° |
| 2026-05-07 10:50 | 37.46780 | 15.05880 | 21 ft | 20 kts | 264° |
| 2026-05-07 10:51 | 37.46764 | 15.05699 | 21 ft | 21 kts | 263° |
| 2026-05-07 10:51 | 37.46750 | 15.05521 | 21 ft | 20 kts | 264° |
| 2026-05-07 10:51 | 37.46737 | 15.05367 | 21 ft | 11 kts | 264° |
| 2026-05-07 10:51 | 37.46702 | 15.05292 | 21 ft | 10 kts | 220° |
| 2026-05-07 10:52 | 37.46650 | 15.05232 | 21 ft | 10 kts | 223° |
| 2026-05-07 10:52 | 37.46592 | 15.05196 | 21 ft | 10 kts | 167° |
| 2026-05-07 10:52 | 37.46564 | 15.05266 | 21 ft | 10 kts | 88° |
| 2026-05-07 10:52 | 37.46569 | 15.05349 | 20 ft | 10 kts | 83° |
| 2026-05-07 10:53 | 37.46580 | 15.05464 | 20 ft | 23 kts | 83° |
| 2026-05-07 10:53 | 37.46625 | 15.05983 | 21 ft | 95 kts | 84° |
| 2026-05-07 10:53 | 37.46697 | 15.07066 | 134 ft | 143 kts | 83° |
| 2026-05-07 10:53 | 37.46702 | 15.08310 | 842 ft | 145 kts | 86° |
| 2026-05-07 10:54 | 37.46765 | 15.09614 | 1485 ft | 152 kts | 84° |
| 2026-05-07 10:54 | 37.46920 | 15.10945 | 2131 ft | 159 kts | 83° |
| 2026-05-07 10:54 | 37.47148 | 15.12409 | 2455 ft | 182 kts | 81° |
| 2026-05-07 10:54 | 37.47430 | 15.13981 | 3098 ft | 188 kts | 81° |
| 2026-05-07 10:55 | 37.47724 | 15.15698 | 3354 ft | 214 kts | 82° |
| 2026-05-07 10:55 | 37.48034 | 15.17626 | 3573 ft | 234 kts | 81° |
| 2026-05-07 10:55 | 37.48349 | 15.19712 | 3946 ft | 250 kts | 82° |
| 2026-05-07 10:55 | 37.48664 | 15.21907 | 4588 ft | 257 kts | 83° |
| 2026-05-07 10:56 | 37.48977 | 15.24137 | 5323 ft | 261 kts | 83° |
| 2026-05-07 10:56 | 37.49289 | 15.26386 | 5992 ft | 267 kts | 83° |
| 2026-05-07 10:56 | 37.49887 | 15.28610 | 6707 ft | 275 kts | 58° |
| 2026-05-07 10:56 | 37.51299 | 15.30314 | 7263 ft | 289 kts | 34° |
| 2026-05-07 10:57 | 37.53013 | 15.31668 | 7943 ft | 295 kts | 32° |
| 2026-05-07 10:57 | 37.54785 | 15.33021 | 8679 ft | 300 kts | 31° |
| 2026-05-07 10:57 | 37.56574 | 15.34388 | 9481 ft | 303 kts | 31° |
| 2026-05-07 10:57 | 37.58388 | 15.35785 | 10231 ft | 309 kts | 31° |
| 2026-05-07 10:58 | 37.60278 | 15.37251 | 10508 ft | 332 kts | 31° |
| 2026-05-07 10:58 | 37.62288 | 15.38819 | 10959 ft | 345 kts | 31° |
| 2026-05-07 10:58 | 37.64344 | 15.40430 | 11701 ft | 349 kts | 30° |
| 2026-05-07 10:58 | 37.66412 | 15.42054 | 12516 ft | 351 kts | 29° |
| 2026-05-07 10:59 | 37.68495 | 15.43692 | 13350 ft | 354 kts | 29° |
| 2026-05-07 10:59 | 37.70698 | 15.45052 | 14100 ft | 353 kts | 11° |
| 2026-05-07 10:59 | 37.73111 | 15.45320 | 14848 ft | 348 kts | 351° |
| 2026-05-07 10:59 | 37.75445 | 15.44585 | 15571 ft | 347 kts | 337° |
| 2026-05-07 11:00 | 37.77715 | 15.43487 | 16271 ft | 352 kts | 335° |
| 2026-05-07 11:00 | 37.79997 | 15.42314 | 16964 ft | 357 kts | 334° |
| 2026-05-07 11:00 | 37.82311 | 15.41112 | 17662 ft | 362 kts | 335° |
| 2026-05-07 11:00 | 37.84663 | 15.39896 | 18345 ft | 368 kts | 335° |
| 2026-05-07 11:01 | 37.87047 | 15.38675 | 18970 ft | 372 kts | 335° |
| 2026-05-07 11:01 | 37.89455 | 15.37452 | 19646 ft | 374 kts | 335° |
| 2026-05-07 11:01 | 37.91885 | 15.36225 | 20302 ft | 377 kts | 335° |
| 2026-05-07 11:01 | 37.94335 | 15.34991 | 20942 ft | 381 kts | 335° |
| 2026-05-07 11:02 | 37.96810 | 15.33746 | 21539 ft | 385 kts | 335° |
| 2026-05-07 11:02 | 37.99309 | 15.32489 | 22164 ft | 388 kts | 334° |
| 2026-05-07 11:02 | 38.01833 | 15.31220 | 22788 ft | 391 kts | 335° |
| 2026-05-07 11:02 | 38.04375 | 15.29940 | 23399 ft | 395 kts | 335° |
| 2026-05-07 11:03 | 38.06940 | 15.28647 | 23915 ft | 399 kts | 335° |
| 2026-05-07 11:03 | 38.09492 | 15.27360 | 24440 ft | 401 kts | 335° |
| 2026-05-07 11:03 | 38.12091 | 15.26048 | 24968 ft | 403 kts | 335° |
| 2026-05-07 11:03 | 38.14702 | 15.24730 | 25504 ft | 405 kts | 335° |
| 2026-05-07 11:04 | 38.17325 | 15.23405 | 26020 ft | 407 kts | 334° |
| 2026-05-07 11:04 | 38.19959 | 15.22073 | 26520 ft | 409 kts | 334° |
| 2026-05-07 11:04 | 38.22611 | 15.20730 | 26992 ft | 411 kts | 334° |
| 2026-05-07 11:04 | 38.25280 | 15.19378 | 27452 ft | 414 kts | 334° |
| 2026-05-07 11:05 | 38.27961 | 15.18019 | 27904 ft | 416 kts | 334° |
| 2026-05-07 11:05 | 38.30662 | 15.16648 | 28351 ft | 419 kts | 334° |
| 2026-05-07 11:05 | 38.33372 | 15.15272 | 28833 ft | 420 kts | 334° |
| 2026-05-07 11:05 | 38.36078 | 15.13898 | 29476 ft | 417 kts | 334° |
| 2026-05-07 11:06 | 38.38758 | 15.12536 | 30142 ft | 413 kts | 334° |
| 2026-05-07 11:06 | 38.41417 | 15.11183 | 30645 ft | 411 kts | 334° |
| 2026-05-07 11:06 | 38.44071 | 15.09830 | 31104 ft | 410 kts | 334° |
| 2026-05-07 11:06 | 38.46724 | 15.08477 | 31560 ft | 410 kts | 334° |
| 2026-05-07 11:07 | 38.49363 | 15.07131 | 32067 ft | 407 kts | 334° |
| 2026-05-07 11:07 | 38.51984 | 15.05795 | 32575 ft | 405 kts | 333° |
| 2026-05-07 11:07 | 38.54593 | 15.04462 | 33058 ft | 403 kts | 333° |
| 2026-05-07 11:07 | 38.57192 | 15.03134 | 33520 ft | 401 kts | 333° |
| 2026-05-07 11:08 | 38.59748 | 15.01826 | 33971 ft | 400 kts | 333° |
| 2026-05-07 11:08 | 38.62322 | 15.00507 | 34336 ft | 399 kts | 333° |
| 2026-05-07 11:08 | 38.64897 | 14.99187 | 34662 ft | 399 kts | 333° |
| 2026-05-07 11:08 | 38.67402 | 14.97900 | 34953 ft | 399 kts | 333° |
| 2026-05-07 11:09 | 38.69984 | 14.96574 | 35272 ft | 399 kts | 333° |
| 2026-05-07 11:09 | 38.72561 | 14.95250 | 35603 ft | 399 kts | 333° |
| 2026-05-07 11:09 | 38.75131 | 14.93928 | 35934 ft | 398 kts | 333° |
| 2026-05-07 11:09 | 38.77731 | 14.92588 | 35933 ft | 406 kts | 333° |
| 2026-05-07 11:10 | 38.83044 | 14.89844 | 35958 ft | 418 kts | 333° |
| 2026-05-07 11:10 | 38.88513 | 14.87018 | 35964 ft | 429 kts | 333° |
| 2026-05-07 11:11 | 38.94119 | 14.84121 | 35961 ft | 437 kts | 333° |
| 2026-05-07 11:11 | 38.99774 | 14.81198 | 35945 ft | 437 kts | 333° |
| 2026-05-07 11:12 | 39.05363 | 14.78307 | 35951 ft | 430 kts | 332° |
| 2026-05-07 11:12 | 39.10912 | 14.75423 | 35966 ft | 431 kts | 332° |
| 2026-05-07 11:13 | 39.16478 | 14.72523 | 35963 ft | 432 kts | 332° |
| 2026-05-07 11:13 | 39.22060 | 14.69611 | 35968 ft | 433 kts | 332° |
| 2026-05-07 11:14 | 39.27654 | 14.66689 | 35967 ft | 434 kts | 332° |
| 2026-05-07 11:14 | 39.33212 | 14.63782 | 35965 ft | 434 kts | 332° |
| 2026-05-07 11:15 | 39.38765 | 14.60871 | 35978 ft | 434 kts | 331° |
| 2026-05-07 11:15 | 39.44359 | 14.57934 | 35977 ft | 433 kts | 331° |
| 2026-05-07 11:16 | 39.49939 | 14.54999 | 35980 ft | 432 kts | 331° |
| 2026-05-07 11:16 | 39.55510 | 14.52064 | 35981 ft | 432 kts | 331° |
| 2026-05-07 11:17 | 39.61018 | 14.48994 | 35982 ft | 429 kts | 329° |
| 2026-05-07 11:17 | 39.66430 | 14.45775 | 35988 ft | 428 kts | 328° |
| 2026-05-07 11:18 | 39.71839 | 14.42559 | 35987 ft | 427 kts | 328° |
| 2026-05-07 11:18 | 39.77217 | 14.39384 | 35989 ft | 427 kts | 328° |
| 2026-05-07 11:19 | 39.82626 | 14.36196 | 35989 ft | 427 kts | 328° |
| 2026-05-07 11:19 | 39.88066 | 14.32986 | 35990 ft | 427 kts | 328° |
| 2026-05-07 11:20 | 39.93439 | 14.29810 | 35991 ft | 427 kts | 328° |
| 2026-05-07 11:20 | 39.98847 | 14.26606 | 35993 ft | 427 kts | 328° |
| 2026-05-07 11:21 | 40.04250 | 14.23407 | 35979 ft | 423 kts | 325° |
| 2026-05-07 11:21 | 40.06872 | 14.21866 | 35967 ft | 404 kts | 324° |
| 2026-05-07 11:21 | 40.09347 | 14.20401 | 35987 ft | 388 kts | 323° |
| 2026-05-07 11:22 | 40.14242 | 14.17462 | 36017 ft | 390 kts | 323° |
| 2026-05-07 11:22 | 40.19176 | 14.14338 | 36002 ft | 393 kts | 317° |
| 2026-05-07 11:23 | 40.23641 | 14.10324 | 36000 ft | 390 kts | 315° |
| 2026-05-07 11:23 | 40.28088 | 14.06225 | 35998 ft | 392 kts | 315° |
| 2026-05-07 11:24 | 40.32565 | 14.02116 | 35999 ft | 393 kts | 315° |
| 2026-05-07 11:24 | 40.37023 | 13.98035 | 36000 ft | 394 kts | 315° |
| 2026-05-07 11:25 | 40.41517 | 13.93922 | 36001 ft | 394 kts | 315° |
| 2026-05-07 11:25 | 40.46004 | 13.89808 | 36011 ft | 394 kts | 315° |
| 2026-05-07 11:26 | 40.50494 | 13.85685 | 36007 ft | 394 kts | 315° |
| 2026-05-07 11:26 | 40.54982 | 13.81555 | 36009 ft | 394 kts | 315° |
| 2026-05-07 11:27 | 40.59474 | 13.77415 | 36010 ft | 394 kts | 315° |
| 2026-05-07 11:27 | 40.63974 | 13.73262 | 36009 ft | 395 kts | 315° |
| 2026-05-07 11:28 | 40.68484 | 13.69091 | 36012 ft | 396 kts | 315° |
| 2026-05-07 11:28 | 40.73008 | 13.64900 | 36012 ft | 398 kts | 315° |
| 2026-05-07 11:29 | 40.76777 | 13.61404 | 36011 ft | 399 kts | 315° |
| 2026-05-07 11:29 | 40.81323 | 13.57179 | 36012 ft | 400 kts | 315° |
| 2026-05-07 11:30 | 40.85887 | 13.52932 | 36015 ft | 402 kts | 315° |
| 2026-05-07 11:30 | 40.90465 | 13.48664 | 36019 ft | 403 kts | 315° |
| 2026-05-07 11:31 | 40.95057 | 13.44375 | 36021 ft | 405 kts | 315° |
| 2026-05-07 11:31 | 40.99669 | 13.40062 | 36021 ft | 406 kts | 316° |
| 2026-05-07 11:32 | 41.04192 | 13.35838 | 36006 ft | 390 kts | 315° |
| 2026-05-07 11:32 | 41.06402 | 13.33766 | 36013 ft | 389 kts | 315° |
| 2026-05-07 11:33 | 41.10771 | 13.29655 | 35766 ft | 384 kts | 315° |
| 2026-05-07 11:33 | 41.12951 | 13.27602 | 35531 ft | 385 kts | 315° |
| 2026-05-07 11:33 | 41.15150 | 13.25524 | 35299 ft | 392 kts | 315° |
| 2026-05-07 11:33 | 41.17384 | 13.23411 | 35065 ft | 396 kts | 315° |
| 2026-05-07 11:34 | 41.19630 | 13.21292 | 34823 ft | 396 kts | 316° |
| 2026-05-07 11:34 | 41.21871 | 13.19181 | 34583 ft | 395 kts | 316° |
| 2026-05-07 11:34 | 41.24114 | 13.17064 | 34349 ft | 394 kts | 316° |
| 2026-05-07 11:34 | 41.26349 | 13.14952 | 34113 ft | 394 kts | 316° |
| 2026-05-07 11:35 | 41.28581 | 13.12840 | 33855 ft | 394 kts | 316° |
| 2026-05-07 11:35 | 41.30813 | 13.10726 | 33578 ft | 393 kts | 316° |
| 2026-05-07 11:35 | 41.33031 | 13.08630 | 33194 ft | 388 kts | 316° |
| 2026-05-07 11:35 | 41.35300 | 13.06659 | 32677 ft | 391 kts | 320° |
| 2026-05-07 11:36 | 41.37631 | 13.04809 | 32270 ft | 389 kts | 321° |
| 2026-05-07 11:36 | 41.39963 | 13.03005 | 31857 ft | 386 kts | 321° |
| 2026-05-07 11:36 | 41.42280 | 13.01207 | 31462 ft | 383 kts | 321° |
| 2026-05-07 11:36 | 41.44566 | 12.99413 | 31076 ft | 380 kts | 320° |
| 2026-05-07 11:37 | 41.46831 | 12.97618 | 30686 ft | 377 kts | 320° |
| 2026-05-07 11:37 | 41.49077 | 12.95830 | 30314 ft | 375 kts | 320° |
| 2026-05-07 11:37 | 41.51307 | 12.94051 | 29917 ft | 372 kts | 320° |
| 2026-05-07 11:37 | 41.53534 | 12.92302 | 29478 ft | 372 kts | 323° |
| 2026-05-07 11:38 | 41.55916 | 12.90896 | 29047 ft | 378 kts | 332° |
| 2026-05-07 11:38 | 41.58406 | 12.89764 | 28646 ft | 376 kts | 333° |
| 2026-05-07 11:38 | 41.60888 | 12.88685 | 28249 ft | 374 kts | 333° |
| 2026-05-07 11:38 | 41.63356 | 12.87619 | 27864 ft | 372 kts | 333° |
| 2026-05-07 11:39 | 41.65809 | 12.86552 | 27472 ft | 369 kts | 333° |
| 2026-05-07 11:39 | 41.68241 | 12.85483 | 27092 ft | 367 kts | 333° |
| 2026-05-07 11:39 | 41.70659 | 12.84412 | 26719 ft | 365 kts | 333° |
| 2026-05-07 11:39 | 41.73067 | 12.83337 | 26198 ft | 367 kts | 333° |
| 2026-05-07 11:40 | 41.75481 | 12.82255 | 25981 ft | 363 kts | 333° |
| 2026-05-07 11:40 | 41.77869 | 12.81185 | 25609 ft | 363 kts | 333° |
| 2026-05-07 11:40 | 41.80260 | 12.80111 | 25229 ft | 361 kts | 333° |
| 2026-05-07 11:40 | 41.82607 | 12.79056 | 24854 ft | 360 kts | 334° |
| 2026-05-07 11:41 | 41.85012 | 12.77972 | 24466 ft | 360 kts | 334° |
| 2026-05-07 11:41 | 41.87385 | 12.76903 | 24091 ft | 360 kts | 334° |
| 2026-05-07 11:41 | 41.89762 | 12.75831 | 23701 ft | 360 kts | 334° |
| 2026-05-07 11:41 | 41.92133 | 12.74761 | 23275 ft | 360 kts | 334° |
| 2026-05-07 11:42 | 41.94476 | 12.73704 | 22886 ft | 359 kts | 334° |
| 2026-05-07 11:42 | 41.96836 | 12.72639 | 22491 ft | 357 kts | 334° |
| 2026-05-07 11:42 | 41.99185 | 12.71578 | 22113 ft | 355 kts | 335° |
| 2026-05-07 11:42 | 42.01517 | 12.70523 | 21747 ft | 353 kts | 335° |
| 2026-05-07 11:43 | 42.03840 | 12.69472 | 21381 ft | 351 kts | 335° |
| 2026-05-07 11:43 | 42.06151 | 12.68424 | 21011 ft | 350 kts | 335° |
| 2026-05-07 11:43 | 42.08453 | 12.67380 | 20648 ft | 348 kts | 335° |
| 2026-05-07 11:43 | 42.10744 | 12.66340 | 20290 ft | 347 kts | 335° |
| 2026-05-07 11:44 | 42.13025 | 12.65303 | 19918 ft | 345 kts | 335° |
| 2026-05-07 11:44 | 42.15294 | 12.64272 | 19567 ft | 344 kts | 335° |
| 2026-05-07 11:44 | 42.17560 | 12.63240 | 19206 ft | 343 kts | 335° |
| 2026-05-07 11:44 | 42.19813 | 12.62215 | 18848 ft | 341 kts | 336° |
| 2026-05-07 11:45 | 42.22062 | 12.61190 | 18496 ft | 340 kts | 336° |
| 2026-05-07 11:45 | 42.24301 | 12.60170 | 18099 ft | 340 kts | 336° |
| 2026-05-07 11:45 | 42.26511 | 12.59122 | 17854 ft | 333 kts | 334° |
| 2026-05-07 11:45 | 42.28658 | 12.58022 | 17570 ft | 328 kts | 333° |
| 2026-05-07 11:46 | 42.30779 | 12.56908 | 17215 ft | 326 kts | 333° |
| 2026-05-07 11:46 | 42.32888 | 12.55795 | 16852 ft | 325 kts | 333° |
| 2026-05-07 11:46 | 42.34989 | 12.54689 | 16521 ft | 323 kts | 334° |
| 2026-05-07 11:46 | 42.37074 | 12.53596 | 16183 ft | 321 kts | 334° |
| 2026-05-07 11:47 | 42.39151 | 12.52510 | 15848 ft | 319 kts | 334° |
| 2026-05-07 11:47 | 42.41220 | 12.51429 | 15518 ft | 318 kts | 334° |
| 2026-05-07 11:47 | 42.43274 | 12.50357 | 15207 ft | 316 kts | 334° |
| 2026-05-07 11:47 | 42.45318 | 12.49290 | 14881 ft | 314 kts | 334° |
| 2026-05-07 11:48 | 42.47357 | 12.48225 | 14563 ft | 313 kts | 334° |
| 2026-05-07 11:48 | 42.49378 | 12.47170 | 14281 ft | 310 kts | 334° |
| 2026-05-07 11:48 | 42.51388 | 12.46120 | 13989 ft | 309 kts | 334° |
| 2026-05-07 11:48 | 42.53384 | 12.45076 | 13670 ft | 307 kts | 335° |
| 2026-05-07 11:49 | 42.55369 | 12.44037 | 13331 ft | 305 kts | 334° |
| 2026-05-07 11:49 | 42.57348 | 12.43001 | 13004 ft | 304 kts | 335° |
| 2026-05-07 11:49 | 42.59287 | 12.41985 | 12675 ft | 302 kts | 335° |
| 2026-05-07 11:49 | 42.61253 | 12.40954 | 12291 ft | 303 kts | 335° |
| 2026-05-07 11:50 | 42.63203 | 12.39929 | 12014 ft | 299 kts | 335° |
| 2026-05-07 11:50 | 42.65140 | 12.38913 | 11703 ft | 297 kts | 335° |
| 2026-05-07 11:50 | 42.67066 | 12.37902 | 11392 ft | 297 kts | 335° |
| 2026-05-07 11:50 | 42.68987 | 12.36892 | 11085 ft | 295 kts | 336° |
| 2026-05-07 11:51 | 42.70894 | 12.35889 | 10791 ft | 293 kts | 336° |
| 2026-05-07 11:51 | 42.72797 | 12.34888 | 10475 ft | 292 kts | 336° |
| 2026-05-07 11:51 | 42.74691 | 12.33890 | 10170 ft | 291 kts | 336° |
| 2026-05-07 11:51 | 42.76573 | 12.32897 | 9894 ft | 289 kts | 336° |
| 2026-05-07 11:52 | 42.78475 | 12.32009 | 9544 ft | 290 kts | 348° |
| 2026-05-07 11:52 | 42.80485 | 12.32154 | 9231 ft | 293 kts | 15° |
| 2026-05-07 11:52 | 42.82262 | 12.33467 | 8927 ft | 292 kts | 37° |
| 2026-05-07 11:52 | 42.83830 | 12.35227 | 8576 ft | 293 kts | 39° |
| 2026-05-07 11:53 | 42.85382 | 12.37006 | 8267 ft | 292 kts | 39° |
| 2026-05-07 11:53 | 42.86935 | 12.38776 | 7996 ft | 290 kts | 39° |
| 2026-05-07 11:53 | 42.88477 | 12.40526 | 7725 ft | 287 kts | 39° |
| 2026-05-07 11:53 | 42.89971 | 12.42211 | 7659 ft | 277 kts | 39° |
| 2026-05-07 11:54 | 42.91452 | 12.43878 | 7584 ft | 268 kts | 39° |
| 2026-05-07 11:54 | 42.92849 | 12.45451 | 7509 ft | 260 kts | 40° |
| 2026-05-07 11:54 | 42.93935 | 12.47358 | 7343 ft | 255 kts | 69° |
| 2026-05-07 11:54 | 42.94201 | 12.49704 | 7137 ft | 251 kts | 97° |
| 2026-05-07 11:55 | 42.93597 | 12.51884 | 6888 ft | 247 kts | 129° |
| 2026-05-07 11:55 | 42.92307 | 12.53369 | 6630 ft | 243 kts | 156° |
| 2026-05-07 11:55 | 42.90709 | 12.53975 | 6414 ft | 238 kts | 179° |
| 2026-05-07 11:55 | 42.89078 | 12.53716 | 6166 ft | 236 kts | 194° |
| 2026-05-07 11:56 | 42.87495 | 12.53155 | 5929 ft | 234 kts | 197° |
| 2026-05-07 11:56 | 42.85918 | 12.52566 | 5660 ft | 235 kts | 196° |
| 2026-05-07 11:56 | 42.84351 | 12.51939 | 5531 ft | 235 kts | 204° |
| 2026-05-07 11:56 | 42.83096 | 12.50601 | 5507 ft | 230 kts | 233° |
| 2026-05-07 11:57 | 42.82435 | 12.48639 | 5502 ft | 230 kts | 259° |
| 2026-05-07 11:57 | 42.82488 | 12.46487 | 5489 ft | 229 kts | 286° |
| 2026-05-07 11:57 | 42.83262 | 12.44620 | 5490 ft | 227 kts | 313° |
| 2026-05-07 11:57 | 42.84555 | 12.43486 | 5506 ft | 221 kts | 339° |
| 2026-05-07 11:58 | 42.86062 | 12.43180 | 5490 ft | 218 kts | 2° |
| 2026-05-07 11:58 | 42.87520 | 12.43548 | 5504 ft | 208 kts | 13° |
| 2026-05-07 11:58 | 42.88897 | 12.44046 | 5479 ft | 203 kts | 14° |
| 2026-05-07 11:58 | 42.90236 | 12.44542 | 5512 ft | 202 kts | 14° |
| 2026-05-07 11:59 | 42.91610 | 12.45040 | 5304 ft | 208 kts | 13° |
| 2026-05-07 11:59 | 42.93004 | 12.45550 | 5044 ft | 207 kts | 17° |
| 2026-05-07 11:59 | 42.94377 | 12.46186 | 4648 ft | 210 kts | 10° |
| 2026-05-07 11:59 | 42.95818 | 12.46523 | 4279 ft | 210 kts | 7° |
| 2026-05-07 12:00 | 42.97245 | 12.46870 | 3884 ft | 208 kts | 13° |
| 2026-05-07 12:00 | 42.98609 | 12.47498 | 3519 ft | 205 kts | 17° |
| 2026-05-07 12:00 | 42.99940 | 12.48058 | 3170 ft | 196 kts | 15° |
| 2026-05-07 12:00 | 43.01238 | 12.48581 | 2826 ft | 190 kts | 14° |
| 2026-05-07 12:01 | 43.02476 | 12.49075 | 2555 ft | 180 kts | 15° |
| 2026-05-07 12:01 | 43.03673 | 12.49390 | 2238 ft | 170 kts | 357° |
| 2026-05-07 12:01 | 43.04771 | 12.49092 | 2068 ft | 152 kts | 349° |
| 2026-05-07 12:01 | 43.05835 | 12.49109 | 2073 ft | 165 kts | 9° |
| 2026-05-07 12:02 | 43.06966 | 12.49601 | 2046 ft | 178 kts | 26° |
| 2026-05-07 12:02 | 43.08003 | 12.50747 | 2219 ft | 197 kts | 58° |
| 2026-05-07 12:02 | 43.08839 | 12.52178 | 2787 ft | 191 kts | 48° |
| 2026-05-07 12:02 | 43.09751 | 12.53515 | 3410 ft | 197 kts | 41° |
| 2026-05-07 12:03 | 43.10938 | 12.54465 | 3648 ft | 198 kts | 17° |
| 2026-05-07 12:03 | 43.12285 | 12.54732 | 3880 ft | 195 kts | 347° |
| 2026-05-07 12:03 | 43.13446 | 12.53916 | 3984 ft | 190 kts | 309° |
| 2026-05-07 12:03 | 43.13965 | 12.52321 | 4008 ft | 184 kts | 271° |
| 2026-05-07 12:04 | 43.13623 | 12.50697 | 4016 ft | 184 kts | 233° |
| 2026-05-07 12:04 | 43.12718 | 12.49346 | 4024 ft | 206 kts | 225° |
| 2026-05-07 12:04 | 43.11686 | 12.47928 | 4022 ft | 211 kts | 225° |
| 2026-05-07 12:04 | 43.10781 | 12.46382 | 3987 ft | 207 kts | 244° |
| 2026-05-07 12:05 | 43.10209 | 12.44606 | 3995 ft | 202 kts | 245° |
| 2026-05-07 12:05 | 43.09628 | 12.42884 | 3999 ft | 197 kts | 245° |
| 2026-05-07 12:05 | 43.09046 | 12.41203 | 4005 ft | 195 kts | 244° |
| 2026-05-07 12:05 | 43.08462 | 12.39540 | 4006 ft | 191 kts | 244° |
| 2026-05-07 12:06 | 43.07901 | 12.37959 | 3984 ft | 180 kts | 244° |
| 2026-05-07 12:06 | 43.07356 | 12.36435 | 3999 ft | 180 kts | 244° |
| 2026-05-07 12:06 | 43.06789 | 12.34863 | 4007 ft | 188 kts | 244° |
| 2026-05-07 12:06 | 43.06199 | 12.33239 | 4001 ft | 192 kts | 243° |
| 2026-05-07 12:07 | 43.05604 | 12.31614 | 4011 ft | 190 kts | 243° |
| 2026-05-07 12:07 | 43.05016 | 12.30004 | 3997 ft | 189 kts | 244° |
| 2026-05-07 12:07 | 43.04428 | 12.28390 | 4007 ft | 189 kts | 243° |
| 2026-05-07 12:07 | 43.03621 | 12.26999 | 3990 ft | 189 kts | 213° |
| 2026-05-07 12:08 | 43.02366 | 12.26550 | 3990 ft | 191 kts | 176° |
| 2026-05-07 12:08 | 43.01147 | 12.27223 | 4010 ft | 196 kts | 140° |
| 2026-05-07 12:08 | 43.00294 | 12.28711 | 4014 ft | 202 kts | 124° |
| 2026-05-07 12:08 | 42.99562 | 12.30363 | 3949 ft | 204 kts | 122° |
| 2026-05-07 12:09 | 42.98843 | 12.32033 | 3836 ft | 202 kts | 122° |
| 2026-05-07 12:09 | 42.98139 | 12.33660 | 3645 ft | 198 kts | 122° |
| 2026-05-07 12:09 | 42.97441 | 12.35262 | 3471 ft | 195 kts | 123° |
| 2026-05-07 12:09 | 42.96762 | 12.36807 | 3443 ft | 185 kts | 122° |
| 2026-05-07 12:10 | 42.96103 | 12.38304 | 3426 ft | 183 kts | 123° |
| 2026-05-07 12:10 | 42.95447 | 12.39794 | 3403 ft | 182 kts | 123° |
| 2026-05-07 12:10 | 42.94799 | 12.41259 | 3413 ft | 182 kts | 122° |
| 2026-05-07 12:10 | 42.94200 | 12.42772 | 3398 ft | 183 kts | 108° |
| 2026-05-07 12:11 | 42.94118 | 12.44544 | 3405 ft | 190 kts | 77° |
| 2026-05-07 12:11 | 42.94830 | 12.45967 | 3414 ft | 186 kts | 33° |
| 2026-05-07 12:11 | 42.96007 | 12.46667 | 3367 ft | 180 kts | 12° |
| 2026-05-07 12:11 | 42.97250 | 12.47064 | 3405 ft | 186 kts | 13° |
| 2026-05-07 12:12 | 42.98502 | 12.47548 | 3302 ft | 190 kts | 15° |
| 2026-05-07 12:12 | 42.99760 | 12.48053 | 3116 ft | 184 kts | 15° |
| 2026-05-07 12:12 | 43.00968 | 12.48497 | 2862 ft | 176 kts | 12° |
| 2026-05-07 12:12 | 43.02146 | 12.48887 | 2517 ft | 173 kts | 12° |
| 2026-05-07 12:13 | 43.03295 | 12.49267 | 2162 ft | 167 kts | 12° |
| 2026-05-07 12:13 | 43.04408 | 12.49631 | 1778 ft | 161 kts | 11° |
| 2026-05-07 12:13 | 43.05453 | 12.49967 | 1493 ft | 147 kts | 12° |
| 2026-05-07 12:13 | 43.06416 | 12.50291 | 1223 ft | 140 kts | 12° |
| 2026-05-07 12:14 | 43.07362 | 12.50576 | 1001 ft | 138 kts | 8° |
| 2026-05-07 12:14 | 43.08254 | 12.50874 | 887 ft | 126 kts | 9° |
| 2026-05-07 12:14 | 43.09087 | 12.51149 | 681 ft | 119 kts | 10° |
| 2026-05-07 12:14 | 43.09767 | 12.51383 | 681 ft | 79 kts | 15° |
| 2026-05-07 12:15 | 43.10151 | 12.51516 | 684 ft | 35 kts | 14° |
| 2026-05-07 12:15 | 43.10266 | 12.51557 | 690 ft | 10 kts | 14° |
| 2026-05-07 12:15 | 43.10332 | 12.51579 | 690 ft | 10 kts | 14° |
| 2026-05-07 12:15 | 43.10400 | 12.51603 | 690 ft | 11 kts | 15° |
| 2026-05-07 12:16 | 43.10482 | 12.51634 | 687 ft | 14 kts | 15° |
| 2026-05-07 12:16 | 43.10585 | 12.51670 | 689 ft | 17 kts | 14° |
| 2026-05-07 12:16 | 43.10693 | 12.51706 | 684 ft | 9 kts | 7° |
| 2026-05-07 12:16 | 43.10750 | 12.51670 | 688 ft | 11 kts | 318° |
| 2026-05-07 12:17 | 43.10781 | 12.51542 | 678 ft | 16 kts | 255° |
| 2026-05-07 12:17 | 43.10687 | 12.51476 | 678 ft | 16 kts | 194° |
| 2026-05-07 12:17 | 43.10581 | 12.51439 | 678 ft | 16 kts | 195° |
| 2026-05-07 12:17 | 43.10461 | 12.51396 | 678 ft | 19 kts | 195° |
| 2026-05-07 12:18 | 43.10325 | 12.51349 | 678 ft | 21 kts | 194° |
| 2026-05-07 12:18 | 43.10188 | 12.51301 | 678 ft | 20 kts | 194° |
| 2026-05-07 12:18 | 43.10056 | 12.51255 | 678 ft | 19 kts | 194° |
| 2026-05-07 12:18 | 43.09928 | 12.51209 | 677 ft | 19 kts | 194° |
| 2026-05-07 12:19 | 43.09810 | 12.51176 | 677 ft | 9 kts | 185° |
| 2026-05-07 12:19 | 43.09764 | 12.51129 | 677 ft | 9 kts | 243° |
| 2026-05-07 12:19 | 43.09737 | 12.51048 | 677 ft | 10 kts | 246° |
| 2026-05-07 12:19 | 43.09705 | 12.50951 | 674 ft | 12 kts | 245° |
| 2026-05-07 12:20 | 43.09669 | 12.50841 | 677 ft | 13 kts | 246° |
| 2026-05-07 12:20 | 43.09629 | 12.50718 | 677 ft | 15 kts | 246° |
| 2026-05-07 12:20 | 43.09599 | 12.50625 | 675 ft | 17 kts | 246° |
| 2026-05-07 12:20 | 43.09566 | 12.50524 | 677 ft | 0 kts | 246° |
| 2026-05-07 12:21 | 43.09566 | 12.50522 | 677 ft | 1 kts | 246° |
| 2026-05-07 12:21 | 43.09555 | 12.50493 | 676 ft | 6 kts | 239° |
| 2026-05-07 12:21 | 43.09530 | 12.50469 | 677 ft | 8 kts | 194° |
| 2026-05-07 12:22 | 43.09518 | 12.50469 | 677 ft | 0 kts | 180° |
| 2026-05-07 12:22 | 43.09515 | 12.50469 | 677 ft | 2 kts | 180° |
| 2026-05-07 12:22 | 43.09489 | 12.50457 | 677 ft | 6 kts | 223° |
| 2026-05-07 12:23 | 43.09470 | 12.50404 | 675 ft | 6 kts | 249° |
| 2026-05-07 12:23 | 43.09469 | 12.50386 | 677 ft | 0 kts | 275° |